sensor_id;sensor_type;location;lat;lon;timestamp;P1;durP1;ratioP1;P2;durP2;ratioP2
67162;SDS011;54092;53.088;8.850;2023-05-15T00:00:13;11.05;;;8.18;;
67162;SDS011;54092;53.088;8.850;2023-05-15T00:02:39;13.20;;;8.65;;
67162;SDS011;54092;53.088;8.850;2023-05-15T00:05:05;11.60;;;8.30;;
67162;SDS011;54092;53.088;8.850;2023-05-15T00:07:31;12.18;;;8.10;;
67162;SDS011;54092;53.088;8.850;2023-05-15T00:09:57;12.10;;;7.68;;
67162;SDS011;54092;53.088;8.850;2023-05-15T00:12:23;13.10;;;8.63;;
67162;SDS011;54092;53.088;8.850;2023-05-15T00:14:48;11.35;;;8.57;;
67162;SDS011;54092;53.088;8.850;2023-05-15T00:17:14;11.70;;;8.30;;
67162;SDS011;54092;53.088;8.850;2023-05-15T00:19:39;13.13;;;8.00;;
67162;SDS011;54092;53.088;8.850;2023-05-15T00:22:05;12.07;;;8.98;;
67162;SDS011;54092;53.088;8.850;2023-05-15T00:24:31;12.25;;;8.18;;
67162;SDS011;54092;53.088;8.850;2023-05-15T00:26:57;13.93;;;8.15;;
67162;SDS011;54092;53.088;8.850;2023-05-15T00:29:23;12.20;;;8.60;;
67162;SDS011;54092;53.088;8.850;2023-05-15T00:31:49;12.65;;;8.73;;
67162;SDS011;54092;53.088;8.850;2023-05-15T00:34:14;12.25;;;8.40;;
67162;SDS011;54092;53.088;8.850;2023-05-15T00:36:40;11.77;;;8.27;;
67162;SDS011;54092;53.088;8.850;2023-05-15T00:39:05;14.60;;;8.63;;
67162;SDS011;54092;53.088;8.850;2023-05-15T00:41:31;12.35;;;8.93;;
67162;SDS011;54092;53.088;8.850;2023-05-15T00:43:59;12.50;;;8.60;;
67162;SDS011;54092;53.088;8.850;2023-05-15T00:46:26;12.98;;;8.35;;
67162;SDS011;54092;53.088;8.850;2023-05-15T00:48:52;12.98;;;8.65;;
67162;SDS011;54092;53.088;8.850;2023-05-15T00:51:17;13.73;;;9.00;;
67162;SDS011;54092;53.088;8.850;2023-05-15T00:53:43;13.07;;;8.43;;
67162;SDS011;54092;53.088;8.850;2023-05-15T00:56:09;12.18;;;8.57;;
67162;SDS011;54092;53.088;8.850;2023-05-15T00:58:36;11.38;;;8.35;;
67162;SDS011;54092;53.088;8.850;2023-05-15T01:01:02;14.68;;;8.77;;
67162;SDS011;54092;53.088;8.850;2023-05-15T01:03:30;12.25;;;8.35;;
67162;SDS011;54092;53.088;8.850;2023-05-15T01:05:56;12.93;;;8.93;;
67162;SDS011;54092;53.088;8.850;2023-05-15T01:08:25;13.50;;;8.52;;
67162;SDS011;54092;53.088;8.850;2023-05-15T01:10:57;12.68;;;9.05;;
67162;SDS011;54092;53.088;8.850;2023-05-15T01:13:24;12.68;;;8.82;;
67162;SDS011;54092;53.088;8.850;2023-05-15T01:15:49;12.85;;;8.68;;
67162;SDS011;54092;53.088;8.850;2023-05-15T01:18:15;11.50;;;8.68;;
67162;SDS011;54092;53.088;8.850;2023-05-15T01:20:46;13.55;;;8.85;;
67162;SDS011;54092;53.088;8.850;2023-05-15T01:23:58;15.02;;;8.55;;
67162;SDS011;54092;53.088;8.850;2023-05-15T01:31:58;14.25;;;9.05;;
67162;SDS011;54092;53.088;8.850;2023-05-15T01:34:30;14.23;;;9.10;;
67162;SDS011;54092;53.088;8.850;2023-05-15T01:37:03;11.90;;;8.82;;
67162;SDS011;54092;53.088;8.850;2023-05-15T01:39:31;14.25;;;8.85;;
67162;SDS011;54092;53.088;8.850;2023-05-15T01:42:01;13.23;;;9.20;;
67162;SDS011;54092;53.088;8.850;2023-05-15T01:44:33;11.55;;;8.52;;
67162;SDS011;54092;53.088;8.850;2023-05-15T01:47:03;15.88;;;9.60;;
67162;SDS011;54092;53.088;8.850;2023-05-15T01:49:34;15.63;;;9.27;;
67162;SDS011;54092;53.088;8.850;2023-05-15T01:52:05;14.38;;;9.80;;
67162;SDS011;54092;53.088;8.850;2023-05-15T01:54:36;14.05;;;9.55;;
67162;SDS011;54092;53.088;8.850;2023-05-15T01:57:03;13.10;;;9.23;;
67162;SDS011;54092;53.088;8.850;2023-05-15T01:59:31;13.25;;;9.63;;
67162;SDS011;54092;53.088;8.850;2023-05-15T02:01:57;13.43;;;9.38;;
67162;SDS011;54092;53.088;8.850;2023-05-15T02:04:23;14.10;;;9.48;;
67162;SDS011;54092;53.088;8.850;2023-05-15T02:06:50;15.10;;;9.55;;
67162;SDS011;54092;53.088;8.850;2023-05-15T02:09:18;13.98;;;9.95;;
67162;SDS011;54092;53.088;8.850;2023-05-15T02:11:44;13.65;;;9.30;;
67162;SDS011;54092;53.088;8.850;2023-05-15T02:14:11;15.23;;;10.13;;
67162;SDS011;54092;53.088;8.850;2023-05-15T02:16:38;13.38;;;9.40;;
67162;SDS011;54092;53.088;8.850;2023-05-15T02:19:03;14.75;;;9.90;;
67162;SDS011;54092;53.088;8.850;2023-05-15T02:21:29;16.10;;;10.27;;
67162;SDS011;54092;53.088;8.850;2023-05-15T02:23:54;14.82;;;10.40;;
67162;SDS011;54092;53.088;8.850;2023-05-15T02:26:30;14.15;;;9.77;;
67162;SDS011;54092;53.088;8.850;2023-05-15T02:29:04;15.07;;;10.18;;
67162;SDS011;54092;53.088;8.850;2023-05-15T02:31:37;14.43;;;9.98;;
67162;SDS011;54092;53.088;8.850;2023-05-15T02:34:24;16.52;;;10.52;;
67162;SDS011;54092;53.088;8.850;2023-05-15T02:37:02;14.73;;;10.45;;
67162;SDS011;54092;53.088;8.850;2023-05-15T02:39:32;15.68;;;10.75;;
67162;SDS011;54092;53.088;8.850;2023-05-15T02:41:58;16.13;;;11.13;;
67162;SDS011;54092;53.088;8.850;2023-05-15T02:44:25;16.15;;;10.60;;
67162;SDS011;54092;53.088;8.850;2023-05-15T02:46:52;14.55;;;10.43;;
67162;SDS011;54092;53.088;8.850;2023-05-15T02:49:19;16.35;;;11.20;;
67162;SDS011;54092;53.088;8.850;2023-05-15T02:51:46;15.40;;;10.35;;
67162;SDS011;54092;53.088;8.850;2023-05-15T02:54:12;16.30;;;10.07;;
67162;SDS011;54092;53.088;8.850;2023-05-15T02:56:37;14.68;;;9.50;;
67162;SDS011;54092;53.088;8.850;2023-05-15T02:59:03;14.13;;;9.73;;
67162;SDS011;54092;53.088;8.850;2023-05-15T03:01:29;15.05;;;10.07;;
67162;SDS011;54092;53.088;8.850;2023-05-15T03:03:55;15.95;;;9.90;;
67162;SDS011;54092;53.088;8.850;2023-05-15T03:06:21;19.92;;;10.95;;
67162;SDS011;54092;53.088;8.850;2023-05-15T03:08:46;15.65;;;10.35;;
67162;SDS011;54092;53.088;8.850;2023-05-15T03:11:12;13.95;;;10.02;;
67162;SDS011;54092;53.088;8.850;2023-05-15T03:13:37;15.13;;;10.35;;
67162;SDS011;54092;53.088;8.850;2023-05-15T03:16:03;15.93;;;10.38;;
67162;SDS011;54092;53.088;8.850;2023-05-15T03:18:29;15.63;;;10.90;;
67162;SDS011;54092;53.088;8.850;2023-05-15T03:20:54;15.60;;;10.90;;
67162;SDS011;54092;53.088;8.850;2023-05-15T03:23:20;15.82;;;10.75;;
67162;SDS011;54092;53.088;8.850;2023-05-15T03:25:45;15.85;;;11.10;;
67162;SDS011;54092;53.088;8.850;2023-05-15T03:28:11;17.75;;;11.13;;
67162;SDS011;54092;53.088;8.850;2023-05-15T03:30:36;17.90;;;11.45;;
67162;SDS011;54092;53.088;8.850;2023-05-15T03:33:02;17.23;;;11.00;;
67162;SDS011;54092;53.088;8.850;2023-05-15T03:35:28;15.18;;;10.85;;
67162;SDS011;54092;53.088;8.850;2023-05-15T03:37:54;19.45;;;11.73;;
67162;SDS011;54092;53.088;8.850;2023-05-15T03:40:20;16.00;;;11.15;;
67162;SDS011;54092;53.088;8.850;2023-05-15T03:42:45;19.23;;;11.40;;
67162;SDS011;54092;53.088;8.850;2023-05-15T03:45:11;16.35;;;11.00;;
67162;SDS011;54092;53.088;8.850;2023-05-15T03:47:36;17.17;;;11.15;;
67162;SDS011;54092;53.088;8.850;2023-05-15T03:50:02;16.63;;;10.98;;
67162;SDS011;54092;53.088;8.850;2023-05-15T03:52:27;15.45;;;10.50;;
67162;SDS011;54092;53.088;8.850;2023-05-15T03:54:53;17.95;;;11.45;;
67162;SDS011;54092;53.088;8.850;2023-05-15T03:57:18;16.33;;;11.10;;
67162;SDS011;54092;53.088;8.850;2023-05-15T03:59:44;16.90;;;11.32;;
67162;SDS011;54092;53.088;8.850;2023-05-15T04:02:09;16.13;;;10.80;;
67162;SDS011;54092;53.088;8.850;2023-05-15T04:04:35;16.00;;;10.77;;
67162;SDS011;54092;53.088;8.850;2023-05-15T04:07:02;16.42;;;10.98;;
67162;SDS011;54092;53.088;8.850;2023-05-15T04:09:29;17.73;;;11.15;;
67162;SDS011;54092;53.088;8.850;2023-05-15T04:11:54;16.92;;;11.25;;
67162;SDS011;54092;53.088;8.850;2023-05-15T04:14:20;17.30;;;10.88;;
67162;SDS011;54092;53.088;8.850;2023-05-15T04:16:45;17.65;;;11.75;;
67162;SDS011;54092;53.088;8.850;2023-05-15T04:19:11;15.70;;;11.32;;
67162;SDS011;54092;53.088;8.850;2023-05-15T04:21:37;17.98;;;11.88;;
67162;SDS011;54092;53.088;8.850;2023-05-15T04:24:02;21.20;;;12.73;;
67162;SDS011;54092;53.088;8.850;2023-05-15T04:26:28;18.58;;;12.43;;
67162;SDS011;54092;53.088;8.850;2023-05-15T04:28:53;18.13;;;11.98;;
67162;SDS011;54092;53.088;8.850;2023-05-15T04:31:21;21.60;;;13.63;;
67162;SDS011;54092;53.088;8.850;2023-05-15T04:33:47;21.15;;;13.70;;
67162;SDS011;54092;53.088;8.850;2023-05-15T04:36:12;20.27;;;13.73;;
67162;SDS011;54092;53.088;8.850;2023-05-15T04:38:38;26.63;;;15.32;;
67162;SDS011;54092;53.088;8.850;2023-05-15T04:41:03;23.75;;;14.65;;
67162;SDS011;54092;53.088;8.850;2023-05-15T04:43:29;26.92;;;15.95;;
67162;SDS011;54092;53.088;8.850;2023-05-15T04:45:55;26.33;;;16.08;;
67162;SDS011;54092;53.088;8.850;2023-05-15T04:48:20;31.70;;;17.42;;
67162;SDS011;54092;53.088;8.850;2023-05-15T04:50:46;29.05;;;16.98;;
67162;SDS011;54092;53.088;8.850;2023-05-15T04:53:12;27.77;;;17.17;;
67162;SDS011;54092;53.088;8.850;2023-05-15T04:55:38;32.60;;;18.48;;
67162;SDS011;54092;53.088;8.850;2023-05-15T04:58:03;32.55;;;19.00;;
67162;SDS011;54092;53.088;8.850;2023-05-15T05:00:29;32.15;;;18.38;;
67162;SDS011;54092;53.088;8.850;2023-05-15T05:02:55;35.47;;;19.60;;
67162;SDS011;54092;53.088;8.850;2023-05-15T05:05:20;31.70;;;19.80;;
67162;SDS011;54092;53.088;8.850;2023-05-15T05:07:46;38.45;;;20.30;;
67162;SDS011;54092;53.088;8.850;2023-05-15T05:10:11;36.95;;;21.60;;
67162;SDS011;54092;53.088;8.850;2023-05-15T05:12:37;37.20;;;21.55;;
67162;SDS011;54092;53.088;8.850;2023-05-15T05:15:03;36.28;;;20.88;;
67162;SDS011;54092;53.088;8.850;2023-05-15T05:17:28;41.38;;;22.35;;
67162;SDS011;54092;53.088;8.850;2023-05-15T05:19:55;40.30;;;21.45;;
67162;SDS011;54092;53.088;8.850;2023-05-15T05:22:20;40.88;;;22.27;;
67162;SDS011;54092;53.088;8.850;2023-05-15T05:24:46;38.42;;;21.40;;
67162;SDS011;54092;53.088;8.850;2023-05-15T05:27:11;41.38;;;23.15;;
67162;SDS011;54092;53.088;8.850;2023-05-15T05:29:37;39.92;;;22.67;;
67162;SDS011;54092;53.088;8.850;2023-05-15T05:32:04;42.22;;;22.70;;
67162;SDS011;54092;53.088;8.850;2023-05-15T05:34:30;43.22;;;24.02;;
67162;SDS011;54092;53.088;8.850;2023-05-15T05:36:55;44.45;;;24.63;;
67162;SDS011;54092;53.088;8.850;2023-05-15T05:39:20;44.67;;;24.33;;
67162;SDS011;54092;53.088;8.850;2023-05-15T05:41:46;42.75;;;24.25;;
67162;SDS011;54092;53.088;8.850;2023-05-15T05:44:11;41.17;;;24.65;;
67162;SDS011;54092;53.088;8.850;2023-05-15T05:46:37;40.85;;;23.38;;
67162;SDS011;54092;53.088;8.850;2023-05-15T05:49:02;41.05;;;22.85;;
67162;SDS011;54092;53.088;8.850;2023-05-15T05:51:28;45.47;;;24.70;;
67162;SDS011;54092;53.088;8.850;2023-05-15T05:53:55;40.88;;;23.45;;
67162;SDS011;54092;53.088;8.850;2023-05-15T05:56:20;41.97;;;24.02;;
67162;SDS011;54092;53.088;8.850;2023-05-15T05:58:46;40.63;;;22.08;;
67162;SDS011;54092;53.088;8.850;2023-05-15T06:01:12;43.38;;;24.17;;
67162;SDS011;54092;53.088;8.850;2023-05-15T06:03:37;40.47;;;22.70;;
67162;SDS011;54092;53.088;8.850;2023-05-15T06:06:03;39.33;;;23.17;;
67162;SDS011;54092;53.088;8.850;2023-05-15T06:08:29;38.10;;;22.15;;
67162;SDS011;54092;53.088;8.850;2023-05-15T06:10:55;38.03;;;21.27;;
67162;SDS011;54092;53.088;8.850;2023-05-15T06:13:21;36.28;;;21.70;;
67162;SDS011;54092;53.088;8.850;2023-05-15T06:15:47;36.40;;;21.80;;
67162;SDS011;54092;53.088;8.850;2023-05-15T06:18:12;36.42;;;21.45;;
67162;SDS011;54092;53.088;8.850;2023-05-15T06:20:38;35.05;;;20.80;;
67162;SDS011;54092;53.088;8.850;2023-05-15T06:23:03;34.92;;;21.10;;
67162;SDS011;54092;53.088;8.850;2023-05-15T06:25:29;35.05;;;20.85;;
67162;SDS011;54092;53.088;8.850;2023-05-15T06:27:55;38.03;;;21.55;;
67162;SDS011;54092;53.088;8.850;2023-05-15T06:30:20;34.10;;;20.80;;
67162;SDS011;54092;53.088;8.850;2023-05-15T06:32:46;31.83;;;20.60;;
67162;SDS011;54092;53.088;8.850;2023-05-15T06:35:11;32.13;;;20.35;;
67162;SDS011;54092;53.088;8.850;2023-05-15T06:37:37;36.13;;;21.98;;
67162;SDS011;54092;53.088;8.850;2023-05-15T06:40:03;38.78;;;21.02;;
67162;SDS011;54092;53.088;8.850;2023-05-15T06:42:29;39.80;;;22.17;;
67162;SDS011;54092;53.088;8.850;2023-05-15T06:44:55;36.25;;;21.50;;
67162;SDS011;54092;53.088;8.850;2023-05-15T06:47:20;36.85;;;22.15;;
67162;SDS011;54092;53.088;8.850;2023-05-15T06:49:46;34.55;;;21.55;;
67162;SDS011;54092;53.088;8.850;2023-05-15T06:52:11;142.05;;;36.55;;
67162;SDS011;54092;53.088;8.850;2023-05-15T06:54:37;35.60;;;21.58;;
67162;SDS011;54092;53.088;8.850;2023-05-15T06:57:04;38.95;;;22.05;;
67162;SDS011;54092;53.088;8.850;2023-05-15T06:59:30;46.92;;;24.55;;
67162;SDS011;54092;53.088;8.850;2023-05-15T07:01:58;43.95;;;22.77;;
67162;SDS011;54092;53.088;8.850;2023-05-15T07:04:24;39.83;;;20.75;;
67162;SDS011;54092;53.088;8.850;2023-05-15T07:06:50;36.75;;;21.75;;
67162;SDS011;54092;53.088;8.850;2023-05-15T07:09:15;39.40;;;22.40;;
67162;SDS011;54092;53.088;8.850;2023-05-15T07:11:40;44.38;;;23.08;;
67162;SDS011;54092;53.088;8.850;2023-05-15T07:14:06;39.03;;;22.02;;
67162;SDS011;54092;53.088;8.850;2023-05-15T07:16:31;39.28;;;22.02;;
67162;SDS011;54092;53.088;8.850;2023-05-15T07:18:57;39.15;;;22.08;;
67162;SDS011;54092;53.088;8.850;2023-05-15T07:21:22;35.30;;;21.40;;
67162;SDS011;54092;53.088;8.850;2023-05-15T07:23:48;35.85;;;22.08;;
67162;SDS011;54092;53.088;8.850;2023-05-15T07:26:13;34.28;;;21.77;;
67162;SDS011;54092;53.088;8.850;2023-05-15T07:28:39;31.52;;;19.98;;
67162;SDS011;54092;53.088;8.850;2023-05-15T07:31:05;43.00;;;20.95;;
67162;SDS011;54092;53.088;8.850;2023-05-15T07:33:31;38.20;;;22.05;;
67162;SDS011;54092;53.088;8.850;2023-05-15T07:35:57;40.67;;;21.25;;
67162;SDS011;54092;53.088;8.850;2023-05-15T07:38:22;35.95;;;21.15;;
67162;SDS011;54092;53.088;8.850;2023-05-15T07:40:48;39.38;;;21.58;;
67162;SDS011;54092;53.088;8.850;2023-05-15T07:43:13;34.35;;;19.50;;
67162;SDS011;54092;53.088;8.850;2023-05-15T07:45:39;33.42;;;19.65;;
67162;SDS011;54092;53.088;8.850;2023-05-15T07:48:14;34.35;;;20.45;;
67162;SDS011;54092;53.088;8.850;2023-05-15T07:50:41;32.33;;;18.08;;
67162;SDS011;54092;53.088;8.850;2023-05-15T07:53:07;30.40;;;17.52;;
67162;SDS011;54092;53.088;8.850;2023-05-15T07:55:32;28.45;;;16.55;;
67162;SDS011;54092;53.088;8.850;2023-05-15T07:57:58;32.08;;;18.05;;
67162;SDS011;54092;53.088;8.850;2023-05-15T08:00:24;42.38;;;20.90;;
67162;SDS011;54092;53.088;8.850;2023-05-15T08:02:50;32.65;;;16.92;;
67162;SDS011;54092;53.088;8.850;2023-05-15T08:05:15;28.42;;;18.38;;
67162;SDS011;54092;53.088;8.850;2023-05-15T08:07:41;28.80;;;16.95;;
67162;SDS011;54092;53.088;8.850;2023-05-15T08:10:06;28.25;;;16.13;;
67162;SDS011;54092;53.088;8.850;2023-05-15T08:12:32;25.23;;;15.85;;
67162;SDS011;54092;53.088;8.850;2023-05-15T08:14:58;26.80;;;15.45;;
67162;SDS011;54092;53.088;8.850;2023-05-15T08:17:23;24.42;;;14.88;;
67162;SDS011;54092;53.088;8.850;2023-05-15T08:19:49;24.83;;;15.27;;
67162;SDS011;54092;53.088;8.850;2023-05-15T08:22:15;25.10;;;14.73;;
67162;SDS011;54092;53.088;8.850;2023-05-15T08:24:41;28.98;;;17.27;;
67162;SDS011;54092;53.088;8.850;2023-05-15T08:27:07;25.58;;;16.23;;
67162;SDS011;54092;53.088;8.850;2023-05-15T08:29:34;27.33;;;15.38;;
67162;SDS011;54092;53.088;8.850;2023-05-15T08:32:00;25.83;;;15.48;;
67162;SDS011;54092;53.088;8.850;2023-05-15T08:34:26;24.60;;;15.07;;
67162;SDS011;54092;53.088;8.850;2023-05-15T08:36:52;27.10;;;14.80;;
67162;SDS011;54092;53.088;8.850;2023-05-15T08:39:18;28.50;;;15.82;;
67162;SDS011;54092;53.088;8.850;2023-05-15T08:41:57;26.10;;;15.80;;
67162;SDS011;54092;53.088;8.850;2023-05-15T08:44:32;25.07;;;15.17;;
67162;SDS011;54092;53.088;8.850;2023-05-15T08:46:57;24.00;;;14.68;;
67162;SDS011;54092;53.088;8.850;2023-05-15T08:49:32;23.20;;;13.75;;
67162;SDS011;54092;53.088;8.850;2023-05-15T08:52:11;22.88;;;13.82;;
67162;SDS011;54092;53.088;8.850;2023-05-15T08:54:37;22.00;;;12.70;;
67162;SDS011;54092;53.088;8.850;2023-05-15T08:57:04;21.90;;;12.82;;
67162;SDS011;54092;53.088;8.850;2023-05-15T08:59:31;20.52;;;13.52;;
67162;SDS011;54092;53.088;8.850;2023-05-15T09:01:56;20.50;;;13.70;;
67162;SDS011;54092;53.088;8.850;2023-05-15T09:04:23;20.20;;;13.05;;
67162;SDS011;54092;53.088;8.850;2023-05-15T09:06:49;21.88;;;13.40;;
67162;SDS011;54092;53.088;8.850;2023-05-15T09:09:15;20.05;;;13.40;;
67162;SDS011;54092;53.088;8.850;2023-05-15T09:11:42;21.45;;;12.60;;
67162;SDS011;54092;53.088;8.850;2023-05-15T09:14:09;22.30;;;11.75;;
67162;SDS011;54092;53.088;8.850;2023-05-15T09:16:35;16.17;;;11.48;;
67162;SDS011;54092;53.088;8.850;2023-05-15T09:19:01;18.23;;;11.68;;
67162;SDS011;54092;53.088;8.850;2023-05-15T09:21:28;16.77;;;11.50;;
67162;SDS011;54092;53.088;8.850;2023-05-15T09:24:14;15.85;;;11.18;;
67162;SDS011;54092;53.088;8.850;2023-05-15T09:26:40;15.25;;;11.57;;
67162;SDS011;54092;53.088;8.850;2023-05-15T09:29:06;16.25;;;11.43;;
67162;SDS011;54092;53.088;8.850;2023-05-15T09:31:32;16.67;;;11.30;;
67162;SDS011;54092;53.088;8.850;2023-05-15T09:33:58;18.52;;;11.15;;
67162;SDS011;54092;53.088;8.850;2023-05-15T09:36:29;14.85;;;11.55;;
67162;SDS011;54092;53.088;8.850;2023-05-15T09:38:57;13.43;;;9.88;;
67162;SDS011;54092;53.088;8.850;2023-05-15T09:41:23;16.73;;;11.25;;
67162;SDS011;54092;53.088;8.850;2023-05-15T09:43:50;17.25;;;12.35;;
67162;SDS011;54092;53.088;8.850;2023-05-15T09:46:17;15.57;;;11.50;;
67162;SDS011;54092;53.088;8.850;2023-05-15T09:48:42;15.13;;;11.48;;
67162;SDS011;54092;53.088;8.850;2023-05-15T09:51:17;16.33;;;11.55;;
67162;SDS011;54092;53.088;8.850;2023-05-15T09:53:48;14.90;;;10.50;;
67162;SDS011;54092;53.088;8.850;2023-05-15T09:56:16;15.77;;;11.10;;
67162;SDS011;54092;53.088;8.850;2023-05-15T09:58:54;15.43;;;11.55;;
67162;SDS011;54092;53.088;8.850;2023-05-15T10:01:22;14.30;;;11.38;;
67162;SDS011;54092;53.088;8.850;2023-05-15T10:06:24;17.00;;;11.02;;
67162;SDS011;54092;53.088;8.850;2023-05-15T10:08:53;17.30;;;13.57;;
67162;SDS011;54092;53.088;8.850;2023-05-15T10:13:46;19.88;;;13.18;;
67162;SDS011;54092;53.088;8.850;2023-05-15T10:16:12;17.17;;;13.10;;
67162;SDS011;54092;53.088;8.850;2023-05-15T10:18:39;19.70;;;12.63;;
67162;SDS011;54092;53.088;8.850;2023-05-15T10:21:07;16.38;;;12.70;;
67162;SDS011;54092;53.088;8.850;2023-05-15T10:23:34;18.90;;;13.75;;
67162;SDS011;54092;53.088;8.850;2023-05-15T10:26:06;22.48;;;14.52;;
67162;SDS011;54092;53.088;8.850;2023-05-15T10:28:38;22.38;;;14.50;;
67162;SDS011;54092;53.088;8.850;2023-05-15T10:31:04;18.33;;;13.68;;
67162;SDS011;54092;53.088;8.850;2023-05-15T10:33:31;23.63;;;13.73;;
67162;SDS011;54092;53.088;8.850;2023-05-15T10:35:58;18.33;;;13.33;;
67162;SDS011;54092;53.088;8.850;2023-05-15T10:38:25;22.98;;;13.82;;
67162;SDS011;54092;53.088;8.850;2023-05-15T10:40:52;21.23;;;15.07;;
67162;SDS011;54092;53.088;8.850;2023-05-15T10:43:21;20.90;;;14.23;;
67162;SDS011;54092;53.088;8.850;2023-05-15T10:45:47;18.52;;;13.95;;
67162;SDS011;54092;53.088;8.850;2023-05-15T10:48:14;20.48;;;13.02;;
67162;SDS011;54092;53.088;8.850;2023-05-15T10:50:40;17.02;;;12.25;;
67162;SDS011;54092;53.088;8.850;2023-05-15T10:53:07;18.50;;;13.45;;
67162;SDS011;54092;53.088;8.850;2023-05-15T10:55:33;17.83;;;13.23;;
67162;SDS011;54092;53.088;8.850;2023-05-15T10:58:00;18.20;;;12.05;;
67162;SDS011;54092;53.088;8.850;2023-05-15T11:00:29;19.40;;;14.48;;
67162;SDS011;54092;53.088;8.850;2023-05-15T11:02:57;17.17;;;12.57;;
67162;SDS011;54092;53.088;8.850;2023-05-15T11:05:24;14.80;;;10.07;;
67162;SDS011;54092;53.088;8.850;2023-05-15T11:10:49;16.42;;;11.20;;
67162;SDS011;54092;53.088;8.850;2023-05-15T11:13:15;16.73;;;11.07;;
67162;SDS011;54092;53.088;8.850;2023-05-15T11:15:41;15.55;;;10.40;;
67162;SDS011;54092;53.088;8.850;2023-05-15T11:18:08;12.63;;;8.95;;
67162;SDS011;54092;53.088;8.850;2023-05-15T11:20:37;14.23;;;8.65;;
67162;SDS011;54092;53.088;8.850;2023-05-15T11:23:23;12.85;;;9.77;;
67162;SDS011;54092;53.088;8.850;2023-05-15T11:25:52;14.00;;;9.88;;
67162;SDS011;54092;53.088;8.850;2023-05-15T11:28:21;13.35;;;8.98;;
67162;SDS011;54092;53.088;8.850;2023-05-15T11:30:49;13.88;;;9.95;;
67162;SDS011;54092;53.088;8.850;2023-05-15T11:33:15;11.68;;;8.40;;
67162;SDS011;54092;53.088;8.850;2023-05-15T11:35:47;12.32;;;8.98;;
67162;SDS011;54092;53.088;8.850;2023-05-15T11:38:22;13.90;;;8.85;;
67162;SDS011;54092;53.088;8.850;2023-05-15T11:43:32;16.85;;;10.30;;
67162;SDS011;54092;53.088;8.850;2023-05-15T11:46:06;13.07;;;9.15;;
67162;SDS011;54092;53.088;8.850;2023-05-15T11:48:34;14.80;;;9.43;;
67162;SDS011;54092;53.088;8.850;2023-05-15T11:51:12;11.32;;;8.05;;
67162;SDS011;54092;53.088;8.850;2023-05-15T11:53:46;11.95;;;7.45;;
67162;SDS011;54092;53.088;8.850;2023-05-15T11:56:17;13.07;;;8.43;;
67162;SDS011;54092;53.088;8.850;2023-05-15T11:58:48;12.95;;;8.80;;
67162;SDS011;54092;53.088;8.850;2023-05-15T12:01:14;13.48;;;8.95;;
67162;SDS011;54092;53.088;8.850;2023-05-15T12:03:40;11.75;;;8.00;;
67162;SDS011;54092;53.088;8.850;2023-05-15T12:06:05;10.63;;;7.60;;
67162;SDS011;54092;53.088;8.850;2023-05-15T12:08:32;10.35;;;7.47;;
67162;SDS011;54092;53.088;8.850;2023-05-15T12:10:59;16.52;;;7.75;;
67162;SDS011;54092;53.088;8.850;2023-05-15T12:13:26;8.63;;;6.65;;
67162;SDS011;54092;53.088;8.850;2023-05-15T12:15:52;10.82;;;6.78;;
67162;SDS011;54092;53.088;8.850;2023-05-15T12:18:19;10.20;;;7.07;;
67162;SDS011;54092;53.088;8.850;2023-05-15T12:20:44;8.55;;;6.13;;
67162;SDS011;54092;53.088;8.850;2023-05-15T12:23:13;10.35;;;7.35;;
67162;SDS011;54092;53.088;8.850;2023-05-15T12:25:39;12.65;;;8.48;;
67162;SDS011;54092;53.088;8.850;2023-05-15T12:28:05;9.18;;;7.03;;
67162;SDS011;54092;53.088;8.850;2023-05-15T12:30:32;10.70;;;7.43;;
67162;SDS011;54092;53.088;8.850;2023-05-15T12:32:59;10.80;;;7.30;;
67162;SDS011;54092;53.088;8.850;2023-05-15T12:35:34;12.05;;;8.70;;
67162;SDS011;54092;53.088;8.850;2023-05-15T12:38:03;12.45;;;8.55;;
67162;SDS011;54092;53.088;8.850;2023-05-15T12:40:32;12.85;;;8.63;;
67162;SDS011;54092;53.088;8.850;2023-05-15T12:42:58;13.52;;;8.35;;
67162;SDS011;54092;53.088;8.850;2023-05-15T12:45:31;15.23;;;10.60;;
67162;SDS011;54092;53.088;8.850;2023-05-15T12:47:59;14.75;;;9.65;;
67162;SDS011;54092;53.088;8.850;2023-05-15T12:50:25;13.88;;;9.20;;
67162;SDS011;54092;53.088;8.850;2023-05-15T12:52:55;14.38;;;8.50;;
67162;SDS011;54092;53.088;8.850;2023-05-15T12:55:23;12.43;;;9.02;;
67162;SDS011;54092;53.088;8.850;2023-05-15T12:57:53;14.48;;;9.23;;
67162;SDS011;54092;53.088;8.850;2023-05-15T13:00:21;14.55;;;9.15;;
67162;SDS011;54092;53.088;8.850;2023-05-15T13:02:47;12.32;;;8.45;;
67162;SDS011;54092;53.088;8.850;2023-05-15T13:05:14;12.30;;;8.70;;
67162;SDS011;54092;53.088;8.850;2023-05-15T13:07:40;13.60;;;9.32;;
67162;SDS011;54092;53.088;8.850;2023-05-15T13:10:06;11.90;;;8.48;;
67162;SDS011;54092;53.088;8.850;2023-05-15T13:12:36;12.55;;;8.30;;
67162;SDS011;54092;53.088;8.850;2023-05-15T13:15:04;13.55;;;9.13;;
67162;SDS011;54092;53.088;8.850;2023-05-15T13:17:31;13.10;;;9.40;;
67162;SDS011;54092;53.088;8.850;2023-05-15T13:19:57;16.40;;;8.65;;
67162;SDS011;54092;53.088;8.850;2023-05-15T13:22:22;11.35;;;7.95;;
67162;SDS011;54092;53.088;8.850;2023-05-15T13:24:49;10.73;;;6.47;;
67162;SDS011;54092;53.088;8.850;2023-05-15T13:27:16;11.18;;;7.15;;
67162;SDS011;54092;53.088;8.850;2023-05-15T13:29:42;10.65;;;7.10;;
67162;SDS011;54092;53.088;8.850;2023-05-15T13:32:07;13.65;;;8.38;;
67162;SDS011;54092;53.088;8.850;2023-05-15T13:34:33;15.93;;;8.13;;
67162;SDS011;54092;53.088;8.850;2023-05-15T13:36:59;11.38;;;7.80;;
67162;SDS011;54092;53.088;8.850;2023-05-15T13:39:24;14.35;;;8.77;;
67162;SDS011;54092;53.088;8.850;2023-05-15T13:41:50;11.30;;;8.10;;
67162;SDS011;54092;53.088;8.850;2023-05-15T13:44:15;12.30;;;7.18;;
67162;SDS011;54092;53.088;8.850;2023-05-15T13:46:41;12.02;;;7.30;;
67162;SDS011;54092;53.088;8.850;2023-05-15T13:49:07;10.38;;;6.75;;
67162;SDS011;54092;53.088;8.850;2023-05-15T13:51:32;12.93;;;7.18;;
67162;SDS011;54092;53.088;8.850;2023-05-15T13:53:58;11.05;;;6.63;;
67162;SDS011;54092;53.088;8.850;2023-05-15T13:56:24;10.73;;;7.28;;
67162;SDS011;54092;53.088;8.850;2023-05-15T13:58:49;14.85;;;7.20;;
67162;SDS011;54092;53.088;8.850;2023-05-15T14:01:15;10.13;;;6.20;;
67162;SDS011;54092;53.088;8.850;2023-05-15T14:03:40;8.82;;;6.28;;
67162;SDS011;54092;53.088;8.850;2023-05-15T14:06:06;11.63;;;6.45;;
67162;SDS011;54092;53.088;8.850;2023-05-15T14:08:31;9.20;;;6.25;;
67162;SDS011;54092;53.088;8.850;2023-05-15T14:10:57;10.27;;;6.32;;
67162;SDS011;54092;53.088;8.850;2023-05-15T14:13:22;10.45;;;6.43;;
67162;SDS011;54092;53.088;8.850;2023-05-15T14:15:48;11.20;;;7.70;;
67162;SDS011;54092;53.088;8.850;2023-05-15T14:18:13;10.88;;;7.13;;
67162;SDS011;54092;53.088;8.850;2023-05-15T14:20:39;11.88;;;8.23;;
67162;SDS011;54092;53.088;8.850;2023-05-15T14:23:04;11.73;;;9.15;;
67162;SDS011;54092;53.088;8.850;2023-05-15T14:25:33;12.95;;;8.88;;
67162;SDS011;54092;53.088;8.850;2023-05-15T14:27:59;13.90;;;8.45;;
67162;SDS011;54092;53.088;8.850;2023-05-15T14:30:24;11.77;;;8.85;;
67162;SDS011;54092;53.088;8.850;2023-05-15T14:32:50;12.57;;;8.52;;
67162;SDS011;54092;53.088;8.850;2023-05-15T14:35:15;17.50;;;8.57;;
67162;SDS011;54092;53.088;8.850;2023-05-15T14:37:40;11.38;;;7.32;;
67162;SDS011;54092;53.088;8.850;2023-05-15T14:40:07;13.05;;;8.05;;